sensor_id;sensor_type;location;lat;lon;timestamp;pressure;altitude;pressure_sealevel;temperature;humidity
71956;BME280;59829;50.562;6.258;2023-09-19T00:08:20;95205.84;;;16.79;90.71
71956;BME280;59829;50.562;6.258;2023-09-19T00:18:25;95230.19;;;16.70;90.63
71956;BME280;59829;50.562;6.258;2023-09-19T00:28:29;95228.06;;;16.42;89.77
71956;BME280;59829;50.562;6.258;2023-09-19T00:38:31;95238.16;;;16.29;89.64
71956;BME280;59829;50.562;6.258;2023-09-19T00:48:40;95238.75;;;16.16;89.39
71956;BME280;59829;50.562;6.258;2023-09-19T00:58:41;95239.63;;;16.01;89.19
71956;BME280;59829;50.562;6.258;2023-09-19T01:08:41;95252.91;;;15.89;89.53
71956;BME280;59829;50.562;6.258;2023-09-19T01:19:02;95260.91;;;15.72;89.87
71956;BME280;59829;50.562;6.258;2023-09-19T01:29:46;95255.84;;;15.78;90.49
71956;BME280;59829;50.562;6.258;2023-09-19T01:39:48;95265.88;;;15.81;90.91
71956;BME280;59829;50.562;6.258;2023-09-19T02:00:18;95267.88;;;15.63;90.78
71956;BME280;59829;50.562;6.258;2023-09-19T02:10:20;95277.53;;;15.53;90.47
71956;BME280;59829;50.562;6.258;2023-09-19T02:20:20;95271.09;;;15.49;90.62
71956;BME280;59829;50.562;6.258;2023-09-19T02:30:21;95291.78;;;15.32;89.87
71956;BME280;59829;50.562;6.258;2023-09-19T02:40:25;95296.94;;;15.24;89.99
71956;BME280;59829;50.562;6.258;2023-09-19T02:50:26;95286.66;;;15.16;90.04
71956;BME280;59829;50.562;6.258;2023-09-19T03:00:26;95290.19;;;15.15;90.16
71956;BME280;59829;50.562;6.258;2023-09-19T03:10:27;95289.56;;;15.13;90.08
71956;BME280;59829;50.562;6.258;2023-09-19T03:20:29;95281.16;;;15.19;90.19
71956;BME280;59829;50.562;6.258;2023-09-19T03:30:29;95287.44;;;15.17;90.05
71956;BME280;59829;50.562;6.258;2023-09-19T03:40:30;95297.63;;;15.10;89.84
71956;BME280;59829;50.562;6.258;2023-09-19T03:50:30;95301.97;;;15.18;89.63
71956;BME280;59829;50.562;6.258;2023-09-19T04:00:30;95304.69;;;15.24;89.87
71956;BME280;59829;50.562;6.258;2023-09-19T04:10:31;95308.72;;;15.27;89.29
71956;BME280;59829;50.562;6.258;2023-09-19T04:20:31;95297.44;;;15.20;88.91
71956;BME280;59829;50.562;6.258;2023-09-19T04:30:32;95305.34;;;15.18;88.83
71956;BME280;59829;50.562;6.258;2023-09-19T04:40:32;95298.59;;;15.01;88.44
71956;BME280;59829;50.562;6.258;2023-09-19T04:50:34;95304.69;;;14.92;88.38
71956;BME280;59829;50.562;6.258;2023-09-19T05:00:35;95325.31;;;14.92;88.48
71956;BME280;59829;50.562;6.258;2023-09-19T05:10:35;95333.41;;;14.97;88.46
71956;BME280;59829;50.562;6.258;2023-09-19T05:20:39;95347.28;;;14.96;88.17
71956;BME280;59829;50.562;6.258;2023-09-19T05:30:39;95361.41;;;14.67;87.83
71956;BME280;59829;50.562;6.258;2023-09-19T05:40:40;95362.84;;;14.70;88.24
71956;BME280;59829;50.562;6.258;2023-09-19T05:50:45;95371.75;;;14.75;88.32
71956;BME280;59829;50.562;6.258;2023-09-19T06:00:47;95374.81;;;14.79;88.35
71956;BME280;59829;50.562;6.258;2023-09-19T06:10:49;95387.06;;;14.85;88.49
71956;BME280;59829;50.562;6.258;2023-09-19T06:20:52;95404.47;;;14.91;88.42
71956;BME280;59829;50.562;6.258;2023-09-19T06:30:52;95418.81;;;14.86;88.38
71956;BME280;59829;50.562;6.258;2023-09-19T06:40:53;95405.59;;;14.89;88.32
71956;BME280;59829;50.562;6.258;2023-09-19T06:50:54;95406.91;;;14.93;88.38
71956;BME280;59829;50.562;6.258;2023-09-19T07:00:55;95408.53;;;15.02;88.54
71956;BME280;59829;50.562;6.258;2023-09-19T07:10:56;95413.72;;;15.10;88.53
71956;BME280;59829;50.562;6.258;2023-09-19T07:20:58;95412.41;;;15.14;88.33
71956;BME280;59829;50.562;6.258;2023-09-19T07:31:05;95427.56;;;15.17;88.42
71956;BME280;59829;50.562;6.258;2023-09-19T07:41:07;95411.13;;;15.26;88.49
71956;BME280;59829;50.562;6.258;2023-09-19T07:51:09;95424.03;;;15.34;88.34
71956;BME280;59829;50.562;6.258;2023-09-19T08:01:10;95435.81;;;15.37;88.19
71956;BME280;59829;50.562;6.258;2023-09-19T08:11:10;95445.34;;;15.45;88.25
71956;BME280;59829;50.562;6.258;2023-09-19T08:21:12;95433.56;;;15.50;88.29
71956;BME280;59829;50.562;6.258;2023-09-19T08:31:14;95425.00;;;15.58;87.82
71956;BME280;59829;50.562;6.258;2023-09-19T08:41:17;95434.41;;;15.67;87.57
71956;BME280;59829;50.562;6.258;2023-09-19T08:51:21;95444.06;;;15.73;87.35
71956;BME280;59829;50.562;6.258;2023-09-19T09:01:28;95435.66;;;15.87;87.20
71956;BME280;59829;50.562;6.258;2023-09-19T09:11:32;95444.38;;;15.86;86.74
71956;BME280;59829;50.562;6.258;2023-09-19T09:21:33;95440.16;;;16.02;86.51
71956;BME280;59829;50.562;6.258;2023-09-19T09:31:39;95426.25;;;16.11;86.14
71956;BME280;59829;50.562;6.258;2023-09-19T09:41:42;95436.88;;;16.24;85.76
71956;BME280;59829;50.562;6.258;2023-09-19T09:52:05;95441.19;;;16.40;85.19
71956;BME280;59829;50.562;6.258;2023-09-19T10:02:09;95415.84;;;16.35;84.32
71956;BME280;59829;50.562;6.258;2023-09-19T10:12:15;95421.16;;;16.42;83.69
71956;BME280;59829;50.562;6.258;2023-09-19T10:22:17;95437.56;;;16.57;82.87
71956;BME280;59829;50.562;6.258;2023-09-19T10:32:22;95434.13;;;16.65;82.04
71956;BME280;59829;50.562;6.258;2023-09-19T10:42:25;95438.03;;;16.61;80.71
71956;BME280;59829;50.562;6.258;2023-09-19T10:52:29;95445.16;;;16.58;79.77
71956;BME280;59829;50.562;6.258;2023-09-19T11:02:29;95443.16;;;16.77;79.09
71956;BME280;59829;50.562;6.258;2023-09-19T11:33:29;95449.78;;;17.10;76.69
71956;BME280;59829;50.562;6.258;2023-09-19T11:43:41;95451.13;;;17.06;75.39
71956;BME280;59829;50.562;6.258;2023-09-19T11:53:42;95452.09;;;17.05;74.92
71956;BME280;59829;50.562;6.258;2023-09-19T12:03:46;95448.19;;;17.09;74.29
71956;BME280;59829;50.562;6.258;2023-09-19T12:13:50;95435.72;;;17.36;74.24
71956;BME280;59829;50.562;6.258;2023-09-19T12:24:12;95442.66;;;17.58;74.02
71956;BME280;59829;50.562;6.258;2023-09-19T12:34:19;95440.34;;;17.63;73.22
71956;BME280;59829;50.562;6.258;2023-09-19T12:44:20;95439.19;;;17.66;72.75
71956;BME280;59829;50.562;6.258;2023-09-19T12:54:21;95425.78;;;17.70;72.03
71956;BME280;59829;50.562;6.258;2023-09-19T13:04:22;95418.34;;;17.82;71.82
71956;BME280;59829;50.562;6.258;2023-09-19T13:14:30;95408.66;;;17.99;71.87
71956;BME280;59829;50.562;6.258;2023-09-19T13:24:40;95397.22;;;18.08;71.12
71956;BME280;59829;50.562;6.258;2023-09-19T13:34:40;95395.78;;;18.20;70.66
71956;BME280;59829;50.562;6.258;2023-09-19T13:44:40;95400.53;;;18.17;70.48
71956;BME280;59829;50.562;6.258;2023-09-19T13:54:41;95406.88;;;18.14;70.07
71956;BME280;59829;50.562;6.258;2023-09-19T14:04:41;95410.81;;;18.10;70.09
71956;BME280;59829;50.562;6.258;2023-09-19T14:14:42;95417.50;;;18.19;70.15
71956;BME280;59829;50.562;6.258;2023-09-19T14:24:42;95404.28;;;18.14;69.94
71956;BME280;59829;50.562;6.258;2023-09-19T14:34:44;95416.50;;;18.20;69.94
71956;BME280;59829;50.562;6.258;2023-09-19T14:44:44;95418.13;;;18.21;69.69
71956;BME280;59829;50.562;6.258;2023-09-19T14:54:44;95409.81;;;18.11;69.63
71956;BME280;59829;50.562;6.258;2023-09-19T15:04:45;95409.19;;;18.09;69.74
71956;BME280;59829;50.562;6.258;2023-09-19T15:14:47;95399.53;;;18.03;69.89
71956;BME280;59829;50.562;6.258;2023-09-19T15:24:48;95405.78;;;17.94;70.04
71956;BME280;59829;50.562;6.258;2023-09-19T15:34:48;95396.13;;;17.88;70.48
71956;BME280;59829;50.562;6.258;2023-09-19T15:44:49;95379.88;;;17.94;70.81
71956;BME280;59829;50.562;6.258;2023-09-19T15:54:51;95375.56;;;18.01;70.96
71956;BME280;59829;50.562;6.258;2023-09-19T16:04:54;95377.91;;;17.96;70.94
71956;BME280;59829;50.562;6.258;2023-09-19T16:14:56;95383.72;;;18.13;71.56
71956;BME280;59829;50.562;6.258;2023-09-19T16:24:56;95377.91;;;18.25;71.24
71956;BME280;59829;50.562;6.258;2023-09-19T16:34:57;95377.81;;;18.19;71.69
71956;BME280;59829;50.562;6.258;2023-09-19T16:44:57;95385.06;;;18.23;71.49
71956;BME280;59829;50.562;6.258;2023-09-19T16:54:59;95392.56;;;18.18;71.30
71956;BME280;59829;50.562;6.258;2023-09-19T17:04:59;95387.53;;;18.02;71.36
71956;BME280;59829;50.562;6.258;2023-09-19T17:15:00;95398.63;;;17.81;71.85
71956;BME280;59829;50.562;6.258;2023-09-19T17:25:00;95386.91;;;17.70;72.02
71956;BME280;59829;50.562;6.258;2023-09-19T17:35:03;95382.13;;;17.59;72.11
71956;BME280;59829;50.562;6.258;2023-09-19T17:45:04;95394.84;;;17.46;72.28
71956;BME280;59829;50.562;6.258;2023-09-19T17:55:06;95406.09;;;17.38;72.92
71956;BME280;59829;50.562;6.258;2023-09-19T18:05:07;95396.31;;;17.26;72.89
71956;BME280;59829;50.562;6.258;2023-09-19T18:15:16;95400.56;;;17.18;73.29
71956;BME280;59829;50.562;6.258;2023-09-19T18:25:16;95415.16;;;17.11;73.83
71956;BME280;59829;50.562;6.258;2023-09-19T18:35:17;95412.94;;;17.08;73.93
71956;BME280;59829;50.562;6.258;2023-09-19T18:45:18;95420.59;;;17.02;74.51
71956;BME280;59829;50.562;6.258;2023-09-19T18:55:18;95418.78;;;17.02;74.97
71956;BME280;59829;50.562;6.258;2023-09-19T19:05:19;95422.19;;;17.03;75.42
71956;BME280;59829;50.562;6.258;2023-09-19T19:15:21;95431.38;;;17.05;75.86
71956;BME280;59829;50.562;6.258;2023-09-19T19:25:21;95425.63;;;16.95;75.73
71956;BME280;59829;50.562;6.258;2023-09-19T19:35:21;95418.47;;;16.97;76.16
71956;BME280;59829;50.562;6.258;2023-09-19T19:45:24;95428.84;;;16.97;76.71
71956;BME280;59829;50.562;6.258;2023-09-19T19:55:24;95418.47;;;16.97;76.82
71956;BME280;59829;50.562;6.258;2023-09-19T20:05:27;95437.56;;;16.96;77.02
71956;BME280;59829;50.562;6.258;2023-09-19T20:15:27;95422.03;;;16.96;77.21
71956;BME280;59829;50.562;6.258;2023-09-19T20:25:30;95414.91;;;16.98;77.40
71956;BME280;59829;50.562;6.258;2023-09-19T20:35:35;95418.94;;;17.01;77.76
71956;BME280;59829;50.562;6.258;2023-09-19T20:45:37;95421.88;;;16.98;77.78
71956;BME280;59829;50.562;6.258;2023-09-19T20:55:40;95395.53;;;16.94;78.41
71956;BME280;59829;50.562;6.258;2023-09-19T21:05:40;95405.31;;;16.84;78.46
71956;BME280;59829;50.562;6.258;2023-09-19T21:15:41;95412.13;;;16.77;78.96
71956;BME280;59829;50.562;6.258;2023-09-19T21:25:42;95394.38;;;16.74;79.23
71956;BME280;59829;50.562;6.258;2023-09-19T21:35:45;95384.03;;;16.74;79.98
71956;BME280;59829;50.562;6.258;2023-09-19T21:45:46;95388.56;;;16.72;80.24
71956;BME280;59829;50.562;6.258;2023-09-19T21:55:46;95372.25;;;16.71;80.63
71956;BME280;59829;50.562;6.258;2023-09-19T22:05:46;95376.97;;;16.68;81.16
71956;BME280;59829;50.562;6.258;2023-09-19T22:15:47;95360.91;;;16.64;81.81
71956;BME280;59829;50.562;6.258;2023-09-19T22:25:48;95376.28;;;16.66;82.18
71956;BME280;59829;50.562;6.258;2023-09-19T22:35:51;95376.59;;;16.63;82.82
71956;BME280;59829;50.562;6.258;2023-09-19T22:45:52;95374.03;;;16.63;83.35
71956;BME280;59829;50.562;6.258;2023-09-19T22:55:53;95383.41;;;16.72;84.31
71956;BME280;59829;50.562;6.258;2023-09-19T23:05:54;95374.31;;;16.76;84.50
71956;BME280;59829;50.562;6.258;2023-09-19T23:15:55;95383.50;;;16.78;85.03
71956;BME280;59829;50.562;6.258;2023-09-19T23:25:56;95375.91;;;16.77;85.35
71956;BME280;59829;50.562;6.258;2023-09-19T23:35:56;95376.38;;;16.80;85.82
71956;BME280;59829;50.562;6.258;2023-09-19T23:45:56;95377.53;;;16.78;86.39
71956;BME280;59829;50.562;6.258;2023-09-19T23:55:58;95376.56;;;16.79;86.70
